Time;durP1;ratioP1;P1;durP2;ratioP2;P2;SDS_P1;SDS_P2;PMS_P1;PMS_P2;Temp;Humidity;BMP_temperature;BMP_pressure;BME280_temperature;BME280_humidity;BME280_pressure;Samples;Min_cycle;Max_cycle;Signal;HPM_P1;HPM_P2
2022/08/07 00:00:30;;;;;;;;;4.50;3.00;;;;;20.61;34.69;102035.16;5121205;27;45310;-59
2022/08/07 00:02:55;;;;;;;;;3.25;3.00;;;;;20.59;34.92;102041.75;5121117;27;45552;-59
2022/08/07 00:05:22;;;;;;;;;2.50;2.25;;;;;20.57;34.72;102039.22;5121462;27;45301;-58
2022/08/07 00:07:47;;;;;;;;;5.75;4.25;;;;;20.52;35.12;102027.25;5120870;27;46007;-55
2022/08/07 00:10:13;;;;;;;;;2.67;2.33;;;;;20.50;35.59;102026.63;5121111;27;45196;-55
2022/08/07 00:12:39;;;;;;;;;5.75;4.00;;;;;20.50;35.12;102029.31;5121204;27;45416;-59
2022/08/07 00:15:05;;;;;;;;;3.00;3.00;;;;;20.46;35.28;102028.81;5121100;27;45256;-52
2022/08/07 00:17:30;;;;;;;;;3.00;3.00;;;;;20.45;35.29;102021.72;5120686;27;47297;-53
2022/08/07 00:19:56;;;;;;;;;3.00;3.00;;;;;20.40;35.63;102021.44;5120016;27;45377;-54
2022/08/07 00:22:21;;;;;;;;;0.75;0.75;;;;;20.39;35.52;102030.53;5121076;27;45321;-55
2022/08/07 00:24:46;;;;;;;;;2.00;2.00;;;;;20.34;35.67;102022.13;5121134;27;45265;-53
2022/08/07 00:27:12;;;;;;;;;6.00;3.00;;;;;20.35;35.67;102029.22;5120568;27;45354;-50
2022/08/07 00:29:37;;;;;;;;;3.00;3.00;;;;;20.28;35.44;102021.00;5120718;27;45276;-54
2022/08/07 00:32:04;;;;;;;;;3.00;3.00;;;;;20.30;36.07;102026.22;5120689;27;45220;-52
2022/08/07 00:34:29;;;;;;;;;3.00;3.00;;;;;20.28;36.16;102017.47;5120806;27;45425;-55
2022/08/07 00:36:55;;;;;;;;;3.67;3.00;;;;;20.24;35.77;102014.28;5120374;27;45451;-55
2022/08/07 00:39:20;;;;;;;;;4.67;4.00;;;;;20.18;36.11;102018.53;5120686;27;45295;-53
2022/08/07 00:41:54;;;;;;;;;3.33;3.00;;;;;20.14;35.97;102014.53;5120691;27;45378;-55
2022/08/07 00:44:20;;;;;;;;;4.00;4.00;;;;;20.11;36.22;102020.28;5120746;27;45421;-49
2022/08/07 00:46:46;;;;;;;;;4.67;3.00;;;;;20.02;36.41;101999.72;5120286;27;45410;-51
2022/08/07 00:49:11;;;;;;;;;4.00;4.00;;;;;20.01;36.71;102014.22;5119226;27;45338;-51
2022/08/07 00:51:36;;;;;;;;;3.33;3.33;;;;;19.98;36.40;102005.66;5120458;27;45437;-50
2022/08/07 00:54:02;;;;;;;;;5.67;5.67;;;;;19.80;36.16;101989.72;5119740;27;45556;-57
2022/08/07 00:56:28;;;;;;;;;4.33;4.33;;;;;19.87;36.83;102004.19;5120270;27;46106;-55
2022/08/07 00:58:54;;;;;;;;;4.00;3.00;;;;;19.83;36.64;101998.31;5120237;27;45231;-53
2022/08/07 01:01:21;;;;;;;;;6.67;3.00;;;;;19.81;37.09;101994.13;5120193;27;45436;-52
2022/08/07 01:03:48;;;;;;;;;4.33;4.33;;;;;19.79;37.11;101996.97;5120339;27;45647;-49
2022/08/07 01:06:14;;;;;;;;;7.67;6.00;;;;;19.70;37.41;101989.94;5119849;27;46425;-52
2022/08/07 01:08:40;;;;;;;;;4.00;4.00;;;;;19.74;37.37;101995.84;5101443;27;46366;-51
2022/08/07 01:11:07;;;;;;;;;5.67;5.67;;;;;19.71;37.65;101999.72;5119978;27;45344;-51
2022/08/07 01:13:33;;;;;;;;;6.67;5.00;;;;;19.69;37.76;101989.09;5120304;27;45451;-51
2022/08/07 01:15:59;;;;;;;;;5.33;3.00;;;;;19.68;38.00;101995.53;5119636;27;45495;-53
2022/08/07 01:18:27;;;;;;;;;5.00;5.00;;;;;19.66;37.36;101988.63;5119847;27;45290;-50
2022/08/07 01:21:09;;;;;;;;;5.00;5.00;;;;;19.61;37.43;101991.84;5120040;27;45429;-53
2022/08/07 01:23:36;;;;;;;;;5.00;4.00;;;;;19.57;37.64;101986.94;5119907;27;45463;-54
2022/08/07 01:26:03;;;;;;;;;3.00;3.00;;;;;19.49;37.98;101968.91;5119692;27;46273;-50
2022/08/07 01:28:29;;;;;;;;;1.33;1.33;;;;;19.42;38.41;101963.41;5119869;27;45380;-52
2022/08/07 01:30:56;;;;;;;;;3.00;3.00;;;;;19.51;38.44;101971.44;5119851;27;45354;-50
2022/08/07 01:33:22;;;;;;;;;4.00;4.00;;;;;19.47;38.44;101976.38;5119910;27;45511;-53
2022/08/07 01:35:47;;;;;;;;;3.00;3.00;;;;;19.42;38.01;101978.72;5119374;27;46271;-51
2022/08/07 01:38:13;;;;;;;;;2.33;2.33;;;;;19.42;38.62;101984.13;5119641;27;45394;-51
2022/08/07 01:40:39;;;;;;;;;3.00;3.00;;;;;19.42;37.95;101986.81;5119904;27;45401;-54
2022/08/07 01:43:05;;;;;;;;;6.00;4.00;;;;;19.39;38.32;101987.19;5101518;27;45366;-51
2022/08/07 01:45:32;;;;;;;;;4.33;4.00;;;;;19.37;38.75;101984.66;5119267;27;46105;-52
2022/08/07 01:47:58;;;;;;;;;5.00;3.00;;;;;19.36;38.46;101990.22;5119308;27;45281;-51
2022/08/07 01:50:25;;;;;;;;;3.00;3.00;;;;;19.27;38.03;101973.22;5119459;27;45454;-51
2022/08/07 01:52:55;;;;;;;;;4.33;3.00;;;;;19.34;38.24;101986.84;5119630;27;45334;-51
2022/08/07 01:55:25;;;;;;;;;4.33;3.33;;;;;19.33;38.68;101983.31;5100636;27;46165;-51
2022/08/07 01:57:56;;;;;;;;;4.00;2.67;;;;;19.32;38.40;101986.19;5119095;27;45473;-56
2022/08/07 02:00:27;;;;;;;;;2.67;2.33;;;;;19.31;38.24;101984.53;5119447;27;45528;-52
2022/08/07 02:02:57;;;;;;;;;5.67;4.00;;;;;19.27;38.73;101981.31;5119156;27;45468;-53
2022/08/07 02:05:36;;;;;;;;;4.33;3.00;;;;;19.18;38.56;101969.72;5118899;27;46354;-52
2022/08/07 02:08:06;;;;;;;;;3.67;3.67;;;;;19.28;38.89;101993.78;5118900;27;45413;-54
2022/08/07 02:10:34;;;;;;;;;4.00;4.00;;;;;19.24;38.77;101989.75;5119598;27;45307;-52
2022/08/07 02:13:02;;;;;;;;;3.00;3.00;;;;;19.13;39.21;101973.94;5119413;27;45467;-52
2022/08/07 02:15:29;;;;;;;;;3.00;3.00;;;;;19.15;38.96;101980.84;5118944;27;46035;-51
2022/08/07 02:17:57;;;;;;;;;2.00;2.00;;;;;19.19;39.05;101989.44;5118905;27;45430;-53
2022/08/07 02:20:24;;;;;;;;;3.33;3.33;;;;;19.11;38.62;101990.31;5118936;27;45346;-52
2022/08/07 02:22:54;;;;;;;;;2.67;2.00;;;;;19.13;38.85;101993.69;5119234;27;45396;-51
2022/08/07 02:25:22;;;;;;;;;4.00;4.00;;;;;19.12;39.60;101996.53;5118216;27;45503;-53
2022/08/07 02:27:48;;;;;;;;;4.00;4.00;;;;;19.09;39.44;101986.94;5118683;27;45344;-53
2022/08/07 02:30:14;;;;;;;;;3.00;3.00;;;;;19.11;39.49;101992.16;5118893;27;45351;-51
2022/08/07 02:32:40;;;;;;;;;5.00;2.00;;;;;19.08;39.16;101990.63;5118863;27;45360;-51
2022/08/07 02:35:07;;;;;;;;;3.00;3.00;;;;;19.07;39.65;101991.66;5118404;27;45502;-52
2022/08/07 02:37:36;;;;;;;;;3.00;2.67;;;;;19.05;39.75;101977.50;5118616;27;45381;-55
2022/08/07 02:40:04;;;;;;;;;3.67;3.67;;;;;19.02;39.55;101985.09;5118618;27;45328;-50
2022/08/07 02:42:32;;;;;;;;;4.67;3.00;;;;;18.98;40.24;101983.75;5118697;27;45462;-49
2022/08/07 02:45:00;;;;;;;;;4.00;3.33;;;;;18.94;40.57;101978.72;5117798;27;45419;-52
2022/08/07 02:47:25;;;;;;;;;3.67;3.67;;;;;18.94;40.76;101985.97;5117959;27;45349;-50
2022/08/07 02:49:52;;;;;;;;;3.00;2.00;;;;;18.89;40.21;101983.78;5118571;27;45455;-57
2022/08/07 02:52:28;;;;;;;;;4.00;2.00;;;;;18.86;39.88;101969.78;5118707;27;45314;-51
2022/08/07 02:54:56;;;;;;;;;2.00;2.00;;;;;18.82;39.87;101979.22;5118240;27;47163;-51
2022/08/07 02:57:22;;;;;;;;;4.00;2.33;;;;;18.75;41.01;101976.41;5118435;27;45460;-49
2022/08/07 02:59:50;;;;;;;;;4.00;2.00;;;;;18.58;40.81;101950.41;5118417;27;45681;-50
2022/08/07 03:02:16;;;;;;;;;4.67;3.00;;;;;18.68;41.56;101972.66;5118614;27;45369;-50
2022/08/07 03:04:44;;;;;;;;;2.33;2.33;;;;;18.62;41.07;101976.00;5117832;27;45654;-51
2022/08/07 03:07:11;;;;;;;;;4.00;3.00;;;;;18.59;41.31;101970.97;5118180;27;45483;-50
2022/08/07 03:09:37;;;;;;;;;2.67;1.67;;;;;18.56;41.25;101968.63;5118530;27;45321;-51
2022/08/07 03:12:07;;;;;;;;;3.33;3.33;;;;;18.53;41.74;101968.94;5120568;27;45434;-51
2022/08/07 03:14:35;;;;;;;;;2.33;2.00;;;;;18.54;41.29;101970.63;5120930;27;46533;-52
2022/08/07 03:17:01;;;;;;;;;2.00;2.00;;;;;18.52;42.06;101968.13;5121837;27;45344;-52
2022/08/07 03:19:27;;;;;;;;;4.00;3.00;;;;;18.48;41.25;101974.84;5122335;27;45380;-52
2022/08/07 03:21:54;;;;;;;;;3.33;3.33;;;;;18.45;41.73;101977.88;5122685;27;45400;-59
2022/08/07 03:24:20;;;;;;;;;1.00;1.00;;;;;18.45;42.10;101977.88;5122302;27;47204;-55
2022/08/07 03:26:50;;;;;;;;;3.67;3.67;;;;;18.40;41.83;101973.00;5122177;27;45322;-59
2022/08/07 03:29:17;;;;;;;;;2.00;2.00;;;;;18.36;42.26;101977.03;5122440;27;45311;-52
2022/08/07 03:31:45;;;;;;;;;3.33;3.33;;;;;18.34;42.08;101972.84;5122141;27;45383;-52
2022/08/07 03:34:13;;;;;;;;;4.00;4.00;;;;;18.32;42.49;101972.97;5121572;27;45451;-58
2022/08/07 03:36:39;;;;;;;;;4.00;4.00;;;;;18.25;42.40;101968.47;5121439;27;45415;-58
2022/08/07 03:39:10;;;;;;;;;3.00;3.00;;;;;18.16;42.83;101959.50;5121654;27;45378;-58
2022/08/07 03:41:36;;;;;;;;;3.67;2.00;;;;;18.26;42.80;101970.13;5121663;27;45475;-50
2022/08/07 03:44:02;;;;;;;;;2.00;2.00;;;;;18.22;42.42;101976.88;5121025;27;46461;-58
2022/08/07 03:46:29;;;;;;;;;3.00;3.00;;;;;18.24;43.26;101977.53;5121340;27;45357;-50
2022/08/07 03:48:55;;;;;;;;;3.00;3.00;;;;;18.17;42.68;101964.75;5121505;27;45279;-56
2022/08/07 03:51:22;;;;;;;;;4.00;2.00;;;;;18.19;43.07;101975.34;5121437;27;45575;-55
2022/08/07 03:53:48;;;;;;;;;2.00;2.00;;;;;18.05;42.68;101960.69;5121250;27;45470;-59
2022/08/07 03:56:19;;;;;;;;;3.67;3.00;;;;;18.17;42.67;101980.91;5121174;27;45355;-51
2022/08/07 03:58:45;;;;;;;;;5.67;5.00;;;;;18.15;43.52;101980.22;5121283;27;45333;-50
2022/08/07 04:01:12;;;;;;;;;4.67;3.67;;;;;18.13;43.19;101973.31;5121510;27;45451;-56
2022/08/07 04:03:38;;;;;;;;;3.00;3.00;;;;;18.08;43.24;101971.13;5120423;27;45545;-57
2022/08/07 04:06:09;;;;;;;;;2.00;2.00;;;;;18.09;43.21;101980.06;5120864;27;45364;-56
2022/08/07 04:08:34;;;;;;;;;3.00;2.67;;;;;18.07;43.60;101974.81;5121059;27;45319;-52
2022/08/07 04:11:00;;;;;;;;;5.67;3.67;;;;;18.06;43.16;101978.53;5102670;27;45444;-59
2022/08/07 04:13:25;;;;;;;;;3.00;3.00;;;;;18.05;43.70;101970.63;5120754;27;45333;-58
2022/08/07 04:15:51;;;;;;;;;4.00;4.00;;;;;17.97;43.31;101966.06;5120918;27;45337;-57
2022/08/07 04:18:17;;;;;;;;;3.33;3.33;;;;;18.00;44.03;101968.44;5120875;27;45348;-56
2022/08/07 04:20:42;;;;;;;;;3.00;3.00;;;;;18.00;43.62;101984.59;5121272;27;45275;-59
2022/08/07 04:23:09;;;;;;;;;2.33;2.33;;;;;17.98;43.48;101989.28;5119265;27;46026;-50
2022/08/07 04:25:39;;;;;;;;;4.00;4.00;;;;;17.95;43.96;101977.00;5120810;27;45205;-51
2022/08/07 04:28:11;;;;;;;;;3.00;3.00;;;;;17.94;43.42;101977.16;5121039;27;45316;-54
2022/08/07 04:30:37;;;;;;;;;3.67;3.00;;;;;17.92;44.14;101965.72;5121104;27;45432;-53
2022/08/07 04:33:08;;;;;;;;;2.33;2.00;;;;;17.83;43.83;101962.16;5119885;27;45362;-59
2022/08/07 04:35:34;;;;;;;;;3.00;3.00;;;;;17.89;44.29;101966.03;5120084;27;45562;-52
2022/08/07 04:38:04;;;;;;;;;3.33;3.33;;;;;17.88;44.09;101981.34;5120664;27;45325;-58
2022/08/07 04:40:30;;;;;;;;;4.00;2.33;;;;;17.89;43.92;101976.81;5120631;27;45442;-53
2022/08/07 04:42:56;;;;;;;;;3.67;3.67;;;;;17.88;44.13;101977.81;5120273;27;47018;-52
2022/08/07 04:45:28;;;;;;;;;3.00;2.00;;;;;17.88;43.62;101985.91;5120413;27;45412;-57
2022/08/07 04:48:22;;;;;;;;;2.67;2.67;;;;;17.87;44.26;101976.97;5120369;27;45410;-48
2022/08/07 04:51:18;;;;;;;;;3.00;3.00;;;;;17.86;44.45;101982.50;5120513;27;45497;-53
2022/08/07 04:53:52;;;;;;;;;2.67;2.00;;;;;17.90;43.92;101983.88;5118123;27;45307;-57
2022/08/07 04:56:26;;;;;;;;;3.00;2.33;;;;;17.90;44.63;101994.63;5120264;27;45334;-54
2022/08/07 04:59:24;;;;;;;;;2.67;2.67;;;;;17.86;44.26;101971.75;5120270;27;45251;-54
2022/08/07 05:02:02;;;;;;;;;6.00;2.33;;;;;17.93;44.59;101989.78;5101674;27;45437;-50
2022/08/07 05:04:34;;;;;;;;;4.00;4.00;;;;;17.93;45.00;101988.94;5119884;27;46040;-51
2022/08/07 05:07:37;;;;;;;;;4.00;4.00;;;;;17.94;43.90;101991.44;5119340;27;45473;-53
2022/08/07 05:10:06;;;;;;;;;5.67;2.00;;;;;17.96;44.43;101994.00;5036169;28;45551;-51
2022/08/07 05:12:50;;;;;;;;;3.33;2.00;;;;;17.91;43.78;101985.56;5036739;28;45486;-50
2022/08/07 05:15:21;;;;;;;;;3.00;3.00;;;;;17.98;44.43;101996.50;5035958;28;46590;-52
2022/08/07 05:17:50;;;;;;;;;4.33;4.33;;;;;18.00;44.51;102002.59;5035968;28;45356;-54
2022/08/07 05:20:23;;;;;;;;;3.00;3.00;;;;;18.01;44.52;102010.50;5035612;28;45591;-52
2022/08/07 05:22:53;;;;;;;;;3.00;3.00;;;;;18.04;44.11;102014.72;5036395;28;45261;-54
2022/08/07 05:25:21;;;;;;;;;2.00;2.00;;;;;18.06;44.66;102005.44;5035929;28;46478;-52
2022/08/07 05:27:47;;;;;;;;;3.67;3.00;;;;;18.06;44.05;102010.84;5036086;28;45424;-51
2022/08/07 05:30:15;;;;;;;;;3.67;3.00;;;;;18.04;44.85;102010.16;5036062;28;45218;-53
2022/08/07 05:32:42;;;;;;;;;3.33;3.00;;;;;18.08;44.27;102011.53;5036214;28;45543;-58
2022/08/07 05:35:10;;;;;;;;;4.00;3.00;;;;;18.09;44.86;102015.91;5035455;28;45471;-53
2022/08/07 05:37:37;;;;;;;;;3.00;3.00;;;;;18.14;44.62;102023.47;5035737;28;45378;-57
2022/08/07 05:40:04;;;;;;;;;4.00;2.00;;;;;18.14;43.65;102018.94;5035994;28;45490;-53
2022/08/07 05:42:30;;;;;;;;;4.67;3.00;;;;;18.14;44.76;102023.47;5035600;28;45285;-53
2022/08/07 05:44:57;;;;;;;;;3.67;3.67;;;;;18.03;44.62;102000.38;5091183;27;45410;-52
2022/08/07 05:47:22;;;;;;;;;4.00;4.00;;;;;18.10;44.48;102012.19;5098802;27;45345;-52
2022/08/07 05:49:49;;;;;;;;;3.00;2.00;;;;;18.14;44.66;102023.47;5098929;27;45392;-53
2022/08/07 05:52:17;;;;;;;;;3.00;3.00;;;;;18.16;44.64;102026.84;5099117;27;45299;-54
2022/08/07 05:54:42;;;;;;;;;2.33;2.33;;;;;18.18;44.60;102030.22;5098799;27;45410;-56
2022/08/07 05:57:08;;;;;;;;;2.67;2.67;;;;;18.16;44.31;102030.41;5098264;27;45421;-49
2022/08/07 05:59:37;;;;;;;;;4.00;4.00;;;;;18.17;44.42;102032.06;5099164;27;45357;-51
2022/08/07 06:02:05;;;;;;;;;2.67;2.67;;;;;18.19;44.62;102038.13;5099638;27;45310;-53
2022/08/07 06:04:34;;;;;;;;;3.67;3.33;;;;;18.19;44.31;102029.19;5098984;27;46193;-53
2022/08/07 06:07:04;;;;;;;;;3.00;3.00;;;;;18.27;44.56;102036.47;5098968;27;45358;-52
2022/08/07 06:09:33;;;;;;;;;0.33;0.33;;;;;18.31;44.15;102035.97;5098580;27;45549;-52
2022/08/07 06:11:59;;;;;;;;;3.67;3.67;;;;;18.34;44.75;102038.34;5080710;27;45173;-52
2022/08/07 06:14:24;;;;;;;;;2.00;2.00;;;;;18.36;44.28;102036.31;5098803;27;47004;-52
2022/08/07 06:16:51;;;;;;;;;5.00;3.00;;;;;18.39;44.04;102035.97;5098508;27;45466;-53
2022/08/07 06:19:18;;;;;;;;;4.00;3.00;;;;;18.41;44.16;102033.97;5098446;27;45415;-51
2022/08/07 06:21:45;;;;;;;;;2.33;2.33;;;;;18.45;44.21;102032.59;5098908;27;45509;-51
2022/08/07 06:24:10;;;;;;;;;3.00;3.00;;;;;18.50;43.98;102034.81;5098259;27;45487;-52
2022/08/07 06:26:39;;;;;;;;;4.67;3.00;;;;;18.53;44.19;102034.47;5098344;27;45358;-54
2022/08/07 06:29:04;;;;;;;;;3.33;3.33;;;;;18.57;43.75;102030.44;5098600;27;45345;-53
2022/08/07 06:31:29;;;;;;;;;2.67;2.67;;;;;18.62;43.63;102032.63;5098438;27;45376;-53
2022/08/07 06:33:55;;;;;;;;;3.33;3.00;;;;;18.57;43.68;102016.94;5098319;27;46000;-48
2022/08/07 06:36:20;;;;;;;;;2.33;2.33;;;;;18.71;43.64;102026.28;5115332;27;45294;-51
2022/08/07 06:38:46;;;;;;;;;2.67;1.00;;;;;18.76;44.00;102023.06;5118823;27;45427;-49
2022/08/07 06:41:18;;;;;;;;;2.00;2.00;;;;;18.82;43.79;102023.22;5119095;27;45314;-52
2022/08/07 06:43:45;;;;;;;;;2.67;2.67;;;;;18.89;43.60;102020.69;5118526;27;47166;-54
2022/08/07 06:46:12;;;;;;;;;3.00;3.00;;;;;19.00;43.47;102014.09;5117824;27;45319;-49
2022/08/07 06:48:37;;;;;;;;;3.00;3.00;;;;;19.07;43.33;102018.63;5118831;27;45453;-53
2022/08/07 06:51:08;;;;;;;;;5.00;3.00;;;;;19.14;42.97;102019.63;5118437;27;45532;-53
2022/08/07 06:53:35;;;;;;;;;2.00;2.00;;;;;19.24;42.75;102015.91;5118587;27;46276;-52
2022/08/07 06:56:04;;;;;;;;;3.00;3.00;;;;;19.32;42.81;102016.72;5118285;27;45364;-52
2022/08/07 06:58:33;;;;;;;;;1.67;1.67;;;;;19.50;42.37;102027.28;5118439;27;45396;-52
2022/08/07 07:00:59;;;;;;;;;3.00;2.00;;;;;19.67;42.10;102018.13;5118653;27;45328;-54
2022/08/07 07:03:25;;;;;;;;;2.33;2.33;;;;;19.93;41.73;102016.97;5118175;27;46396;-53
2022/08/07 07:05:50;;;;;;;;;1.00;1.00;;;;;20.28;41.13;102021.00;5118133;27;45448;-51
2022/08/07 07:08:16;;;;;;;;;2.00;2.00;;;;;20.73;40.12;102023.88;5118562;27;45394;-52
2022/08/07 07:10:41;;;;;;;;;3.00;3.00;;;;;21.25;40.17;102021.19;5118659;27;45322;-57
2022/08/07 07:13:15;;;;;;;;;6.50;2.25;;;;;21.80;39.19;102016.31;5117857;27;46126;-51
2022/08/07 07:15:45;;;;;;;;;3.00;3.00;;;;;22.38;37.96;102028.03;5118016;27;45417;-51
2022/08/07 07:18:29;;;;;;;;;1.50;1.50;;;;;22.93;37.58;102023.75;5118175;27;45481;-52
2022/08/07 07:20:58;;;;;;;;;3.00;3.00;;;;;23.41;35.73;102013.81;5118182;27;45505;-50
2022/08/07 07:23:25;;;;;;;;;3.00;1.25;;;;;23.90;35.76;102018.25;5117888;27;47093;-55
2022/08/07 07:25:56;;;;;;;;;2.00;2.00;;;;;24.24;34.75;102005.56;5118001;27;45287;-50
2022/08/07 07:28:24;;;;;;;;;1.40;1.00;;;;;24.77;34.05;102007.50;5118297;27;45373;-53
2022/08/07 07:30:54;;;;;;;;;3.75;3.00;;;;;25.38;32.28;102015.41;5118442;27;45449;-52
2022/08/07 07:33:21;;;;;;;;;2.00;2.00;;;;;25.98;32.90;102017.91;5117857;27;46350;-54
2022/08/07 07:35:49;;;;;;;;;0.40;0.00;;;;;26.51;32.17;102014.88;5117479;27;45479;-60
2022/08/07 07:38:19;;;;;;;;;3.00;3.00;;;;;27.21;30.73;102011.91;5118258;27;45419;-52
2022/08/07 07:40:47;;;;;;;;;5.20;2.00;;;;;28.46;31.97;101997.69;5118113;27;45254;-55
2022/08/07 07:43:14;;;;;;;;;3.80;1.00;;;;;30.38;27.39;101998.47;5117825;27;46348;-52
2022/08/07 07:45:41;;;;;;;;;2.20;2.20;;;;;32.43;24.86;101994.56;5117812;27;45322;-54
2022/08/07 07:48:11;;;;;;;;;1.20;0.00;;;;;34.16;22.74;101995.41;5117928;27;45302;-53
2022/08/07 07:50:38;;;;;;;;;2.80;1.00;;;;;35.52;22.49;101991.03;5117911;27;45266;-52
2022/08/07 07:53:06;;;;;;;;;1.20;1.20;;;;;36.75;19.87;101980.72;5099362;27;46202;-53
2022/08/07 07:55:31;;;;;;;;;1.80;1.80;;;;;37.86;18.20;101968.50;5117584;27;45334;-54
2022/08/07 07:57:57;;;;;;;;;1.25;1.00;;;;;38.96;17.61;101987.44;5119733;27;45442;-52
2022/08/07 08:00:26;;;;;;;;;1.00;1.00;;;;;40.00;16.89;101986.56;5121494;27;45432;-53
2022/08/07 08:02:54;;;;;;;;;0.80;0.80;;;;;40.63;15.43;101990.28;5121161;27;46253;-57
2022/08/07 08:05:21;;;;;;;;;1.60;1.60;;;;;41.34;16.96;101993.81;5121028;27;45390;-54
2022/08/07 08:07:47;;;;;;;;;0.00;0.00;;;;;41.81;16.23;101971.72;5121120;27;45370;-56
2022/08/07 08:10:13;;;;;;;;;0.00;0.00;;;;;42.47;14.63;101982.63;5102668;27;45389;-50
2022/08/07 08:12:39;;;;;;;;;0.00;0.00;;;;;42.87;15.03;101978.72;5121134;27;47045;-52
2022/08/07 08:15:05;;;;;;;;;1.40;0.20;;;;;43.09;13.97;101975.66;5120805;27;45474;-53
2022/08/07 08:17:34;;;;;;;;;2.00;2.00;;;;;43.45;13.39;101980.72;5121079;27;45736;-54
2022/08/07 08:20:08;;;;;;;;;0.40;0.40;;;;;43.75;14.01;101967.44;5121125;27;45242;-53
2022/08/07 08:28:17;;;;;;;;;1.20;1.20;;;;;45.34;12.87;101980.06;5120815;27;45186;-52
2022/08/07 08:30:44;;;;;;;;;0.00;0.00;;;;;45.64;11.76;101966.53;5121000;27;45320;-54
2022/08/07 08:33:17;;;;;;;;;0.60;0.60;;;;;45.77;11.97;101966.16;5120584;27;46985;-52
2022/08/07 08:35:47;;;;;;;;;1.20;1.20;;;;;45.55;12.01;101961.06;5120253;27;45424;-55
2022/08/07 08:38:15;;;;;;;;;2.00;1.00;;;;;45.91;10.83;101962.94;5120955;27;45288;-53
2022/08/07 08:40:48;;;;;;;;;1.00;1.00;;;;;46.39;12.44;101951.78;5120868;27;45402;-54
2022/08/07 08:43:22;;;;;;;;;0.80;0.80;;;;;46.75;11.19;101961.94;5120402;27;45525;-53
2022/08/07 08:45:52;;;;;;;;;1.00;1.00;;;;;47.22;10.60;101956.22;5119753;27;45204;-53
2022/08/07 08:48:38;;;;;;;;;0.00;0.00;;;;;47.11;10.49;101972.06;5120649;27;45363;-54
2022/08/07 08:51:03;;;;;;;;;1.00;1.00;;;;;46.97;10.39;101958.47;5120549;27;45310;-51
2022/08/07 08:53:58;;;;;;;;;1.00;1.00;;;;;47.24;10.17;101958.66;5120211;27;45386;-51
2022/08/07 08:56:27;;;;;;;;;0.00;0.00;;;;;47.62;10.55;101957.06;5112377;27;45486;-55
2022/08/07 08:58:59;;;;;;;;;1.20;0.80;;;;;47.80;9.38;101954.66;5120569;27;45354;-54
2022/08/07 09:01:36;;;;;;;;;1.00;1.00;;;;;48.10;10.06;101960.47;5120765;27;45535;-53
2022/08/07 09:04:17;;;;;;;;;0.80;0.80;;;;;48.40;9.58;101957.81;5120378;27;46081;-52
2022/08/07 09:06:58;;;;;;;;;0.80;0.80;;;;;48.48;9.42;101957.53;5120046;27;45342;-60
2022/08/07 09:09:35;;;;;;;;;0.80;0.80;;;;;48.78;9.50;101956.81;5119636;27;45322;-54
2022/08/07 09:12:26;;;;;;;;;0.00;0.00;;;;;48.68;8.95;101957.47;5120515;27;45458;-61
2022/08/07 09:15:04;;;;;;;;;0.60;0.60;;;;;48.86;9.07;101957.75;5120113;27;46337;-60
2022/08/07 09:17:57;;;;;;;;;1.00;0.00;;;;;49.05;9.81;101963.25;5120112;27;45370;-54
2022/08/07 09:20:41;;;;;;;;;0.40;0.40;;;;;49.11;9.38;101967.44;5120224;27;45310;-52
2022/08/07 09:23:12;;;;;;;;;0.00;0.00;;;;;49.05;8.23;101959.63;5120212;27;45178;-56
2022/08/07 09:25:48;;;;;;;;;0.80;0.80;;;;;49.14;8.09;101958.19;5119954;27;45362;-56
2022/08/07 09:28:38;;;;;;;;;0.00;0.00;;;;;49.09;8.80;101957.66;5119945;27;45374;-54
2022/08/07 09:31:09;;;;;;;;;0.20;0.20;;;;;49.41;9.28;101949.63;5120192;27;45343;-54
2022/08/07 09:33:53;;;;;;;;;0.00;0.00;;;;;48.99;8.07;101956.31;5120303;27;45234;-53
2022/08/07 09:36:41;;;;;;;;;0.00;0.00;;;;;49.28;8.56;101953.91;5119433;27;47234;-54
2022/08/07 09:39:33;;;;;;;;;0.40;0.00;;;;;49.04;9.24;101958.81;5016320;28;45475;-54
2022/08/07 09:42:29;;;;;;;;;0.00;0.00;;;;;49.21;8.54;101954.63;5016417;28;45432;-54
2022/08/07 09:45:14;;;;;;;;;0.00;0.00;;;;;49.41;8.49;101941.97;5016458;28;45368;-54
2022/08/07 09:47:39;;;;;;;;;0.80;0.80;;;;;50.20;8.11;101951.38;5015650;28;46361;-57
2022/08/07 09:50:19;;;;;;;;;0.00;0.00;;;;;49.98;9.01;101939.00;5016074;28;45429;-54
2022/08/07 09:52:50;;;;;;;;;1.00;1.00;;;;;49.80;8.21;101946.47;5015939;28;45533;-53
2022/08/07 09:55:30;;;;;;;;;1.00;1.00;;;;;50.05;8.18;101939.06;4999522;28;45312;-58
2022/08/07 09:58:15;;;;;;;;;1.20;1.20;;;;;49.84;8.34;101948.16;5015548;28;47408;-56
2022/08/07 10:00:49;;;;;;;;;0.20;0.00;;;;;49.93;8.22;101945.00;5015905;28;45624;-54
2022/08/07 10:03:52;;;;;;;;;0.00;0.00;;;;;49.97;8.32;101934.53;5015853;28;45430;-54
2022/08/07 10:06:42;;;;;;;;;1.60;1.60;;;;;50.10;8.28;101935.06;5015714;28;45426;-54
2022/08/07 10:09:29;;;;;;;;;0.60;0.60;;;;;50.13;7.13;101937.94;5015444;28;47048;-52
2022/08/07 10:12:16;;;;;;;;;0.60;0.60;;;;;50.04;7.55;101931.78;5015582;28;45377;-53
2022/08/07 10:15:05;;;;;;;;;0.20;0.20;;;;;50.06;8.08;101926.53;5015630;28;45280;-53
2022/08/07 10:17:56;;;;;;;;;0.20;0.20;;;;;50.18;7.25;101928.28;5119314;27;45419;-53
2022/08/07 10:20:46;;;;;;;;;1.00;0.00;;;;;50.07;8.10;101916.88;5118942;27;45270;-53
2022/08/07 10:23:24;;;;;;;;;1.00;1.00;;;;;50.62;7.71;101916.94;5118774;27;45410;-57
2022/08/07 10:26:10;;;;;;;;;0.60;0.60;;;;;50.73;8.20;101902.00;5118947;27;45281;-57
2022/08/07 10:28:43;;;;;;;;;1.40;1.40;;;;;50.52;7.85;101903.50;5119174;27;45430;-56
2022/08/07 10:31:54;;;;;;;;;1.00;1.00;;;;;50.55;7.88;101905.56;5118847;27;46100;-54
2022/08/07 10:34:29;;;;;;;;;2.40;0.80;;;;;50.00;7.61;101896.97;5118725;27;45278;-56
2022/08/07 10:37:17;;;;;;;;;1.00;1.00;;;;;49.83;7.73;101903.28;5118684;27;45290;-54
2022/08/07 10:40:18;;;;;;;;;1.40;1.00;;;;;49.86;7.98;101902.53;5118967;27;45417;-51
2022/08/07 10:43:01;;;;;;;;;2.40;1.40;;;;;49.75;8.25;101896.72;5118511;27;46313;-55
2022/08/07 10:45:37;;;;;;;;;0.60;0.60;;;;;49.37;8.48;101903.56;5118730;27;45326;-58
2022/08/07 10:48:23;;;;;;;;;2.20;1.00;;;;;49.27;8.59;101896.59;5118743;27;45308;-54
2022/08/07 10:51:02;;;;;;;;;1.80;0.80;;;;;48.94;8.11;101891.69;5118743;27;45344;-59
2022/08/07 10:53:52;;;;;;;;;3.00;1.20;;;;;48.96;8.34;101886.44;5118576;27;45315;-56
2022/08/07 10:56:42;;;;;;;;;1.00;1.00;;;;;48.64;8.26;101883.16;5118662;27;45413;-53
2022/08/07 10:59:26;;;;;;;;;1.20;1.20;;;;;48.52;8.43;101889.03;5118748;27;45849;-54
2022/08/07 11:02:17;;;;;;;;;2.20;1.60;;;;;48.10;8.35;101884.28;5118620;27;45554;-54
2022/08/07 11:04:49;;;;;;;;;2.00;1.80;;;;;47.90;8.58;101880.69;5117437;27;46472;-52
2022/08/07 11:07:26;;;;;;;;;0.80;0.80;;;;;47.94;8.30;101885.19;5118322;27;45448;-52
2022/08/07 11:09:57;;;;;;;;;0.80;0.80;;;;;47.54;8.20;101880.00;5118326;27;45384;-52
2022/08/07 11:12:33;;;;;;;;;1.00;1.00;;;;;47.10;8.64;101871.84;5118018;27;45426;-56
2022/08/07 11:15:10;;;;;;;;;1.20;1.20;;;;;46.76;9.04;101863.03;5117993;27;46293;-55
2022/08/07 11:17:57;;;;;;;;;5.00;3.20;;;;;45.88;9.01;101870.06;5118202;27;45368;-55
2022/08/07 11:20:36;;;;;;;;;2.80;2.80;;;;;45.40;9.34;101855.03;5118274;27;45222;-56
2022/08/07 11:23:21;;;;;;;;;2.80;1.80;;;;;44.74;9.99;101851.47;5118022;27;45501;-54
2022/08/07 11:26:00;;;;;;;;;3.40;3.40;;;;;44.75;10.27;101843.84;5117790;27;45325;-55
2022/08/07 11:28:54;;;;;;;;;1.80;1.80;;;;;44.73;9.99;101844.22;5117924;27;45402;-55
2022/08/07 11:31:52;;;;;;;;;2.00;2.00;;;;;44.19;10.27;101841.63;5034091;28;45503;-53
2022/08/07 11:34:35;;;;;;;;;1.40;1.40;;;;;43.42;10.42;101838.50;5037680;28;45235;-54
2022/08/07 11:37:10;;;;;;;;;2.60;2.60;;;;;42.41;11.10;101838.53;5037593;28;46126;-51
2022/08/07 11:39:54;;;;;;;;;2.40;2.00;;;;;39.84;12.68;101838.44;5037783;28;45510;-53
2022/08/07 11:42:32;;;;;;;;;2.00;2.00;;;;;37.95;14.14;101836.13;5037857;28;45362;-55
2022/08/07 11:45:27;;;;;;;;;2.80;2.80;;;;;36.36;15.43;101842.22;5037662;28;45436;-50
2022/08/07 11:47:55;;;;;;;;;2.20;2.20;;;;;35.33;15.40;101836.72;5037293;28;46410;-52
2022/08/07 11:50:25;;;;;;;;;1.00;1.00;;;;;34.25;16.26;101846.53;5021024;28;45258;-51
2022/08/07 11:53:13;;;;;;;;;2.00;2.00;;;;;33.20;17.34;101833.22;5037496;28;45435;-51